sensor_id;sensor_type;location;lat;lon;timestamp;P1;durP1;ratioP1;P2;durP2;ratioP2
50483;SDS011;36409;52.168;20.878;2022-09-03T00:00:10;8.60;;;2.60;;
50483;SDS011;36409;52.168;20.878;2022-09-03T00:03:02;6.93;;;2.57;;
50483;SDS011;36409;52.168;20.878;2022-09-03T00:05:37;8.20;;;2.80;;
50483;SDS011;36409;52.168;20.878;2022-09-03T00:08:11;8.87;;;3.03;;
50483;SDS011;36409;52.168;20.878;2022-09-03T00:10:48;7.37;;;2.83;;
50483;SDS011;36409;52.168;20.878;2022-09-03T00:13:23;11.70;;;3.03;;
50483;SDS011;36409;52.168;20.878;2022-09-03T00:15:56;6.23;;;2.60;;
50483;SDS011;36409;52.168;20.878;2022-09-03T00:18:27;6.83;;;2.60;;
50483;SDS011;36409;52.168;20.878;2022-09-03T00:21:01;5.17;;;2.30;;
50483;SDS011;36409;52.168;20.878;2022-09-03T00:23:35;4.80;;;2.30;;
50483;SDS011;36409;52.168;20.878;2022-09-03T00:26:16;5.63;;;2.77;;
50483;SDS011;36409;52.168;20.878;2022-09-03T00:28:55;9.13;;;3.80;;
50483;SDS011;36409;52.168;20.878;2022-09-03T00:31:30;7.33;;;2.97;;
50483;SDS011;36409;52.168;20.878;2022-09-03T00:36:36;8.03;;;2.90;;
50483;SDS011;36409;52.168;20.878;2022-09-03T00:39:10;9.57;;;3.20;;
50483;SDS011;36409;52.168;20.878;2022-09-03T00:41:43;10.97;;;2.83;;
50483;SDS011;36409;52.168;20.878;2022-09-03T00:44:31;8.13;;;3.30;;
50483;SDS011;36409;52.168;20.878;2022-09-03T00:47:31;5.27;;;2.87;;
50483;SDS011;36409;52.168;20.878;2022-09-03T00:50:12;6.53;;;3.00;;
50483;SDS011;36409;52.168;20.878;2022-09-03T00:52:50;5.80;;;2.70;;
50483;SDS011;36409;52.168;20.878;2022-09-03T00:55:29;8.93;;;2.67;;
50483;SDS011;36409;52.168;20.878;2022-09-03T00:58:17;7.67;;;2.40;;
50483;SDS011;36409;52.168;20.878;2022-09-03T01:00:58;9.43;;;2.50;;
50483;SDS011;36409;52.168;20.878;2022-09-03T01:03:33;5.93;;;2.80;;
50483;SDS011;36409;52.168;20.878;2022-09-03T01:06:12;7.00;;;2.90;;
50483;SDS011;36409;52.168;20.878;2022-09-03T01:08:53;6.67;;;2.90;;
50483;SDS011;36409;52.168;20.878;2022-09-03T01:11:46;6.53;;;2.50;;
50483;SDS011;36409;52.168;20.878;2022-09-03T01:14:38;9.23;;;2.83;;
50483;SDS011;36409;52.168;20.878;2022-09-03T01:17:21;6.67;;;2.63;;
50483;SDS011;36409;52.168;20.878;2022-09-03T01:20:00;12.30;;;3.20;;
50483;SDS011;36409;52.168;20.878;2022-09-03T01:23:02;7.03;;;3.00;;
50483;SDS011;36409;52.168;20.878;2022-09-03T01:25:50;8.37;;;3.03;;
50483;SDS011;36409;52.168;20.878;2022-09-03T01:28:23;6.00;;;2.90;;
50483;SDS011;36409;52.168;20.878;2022-09-03T01:31:02;4.83;;;2.30;;
50483;SDS011;36409;52.168;20.878;2022-09-03T01:33:39;10.50;;;2.80;;
50483;SDS011;36409;52.168;20.878;2022-09-03T01:36:15;7.73;;;2.70;;
50483;SDS011;36409;52.168;20.878;2022-09-03T01:38:52;10.17;;;3.30;;
50483;SDS011;36409;52.168;20.878;2022-09-03T01:41:29;7.93;;;3.13;;
50483;SDS011;36409;52.168;20.878;2022-09-03T01:44:27;9.50;;;2.87;;
50483;SDS011;36409;52.168;20.878;2022-09-03T01:47:13;8.43;;;3.30;;
50483;SDS011;36409;52.168;20.878;2022-09-03T01:49:50;9.90;;;3.03;;
50483;SDS011;36409;52.168;20.878;2022-09-03T01:52:33;8.57;;;2.80;;
50483;SDS011;36409;52.168;20.878;2022-09-03T01:55:17;5.83;;;2.53;;
50483;SDS011;36409;52.168;20.878;2022-09-03T01:58:04;7.70;;;2.87;;
50483;SDS011;36409;52.168;20.878;2022-09-03T02:00:38;7.17;;;2.77;;
50483;SDS011;36409;52.168;20.878;2022-09-03T02:03:14;7.33;;;3.40;;
50483;SDS011;36409;52.168;20.878;2022-09-03T02:05:43;11.87;;;3.40;;
50483;SDS011;36409;52.168;20.878;2022-09-03T02:08:12;7.13;;;3.27;;
50483;SDS011;36409;52.168;20.878;2022-09-03T02:10:42;7.63;;;3.43;;
50483;SDS011;36409;52.168;20.878;2022-09-03T02:13:14;5.87;;;2.87;;
50483;SDS011;36409;52.168;20.878;2022-09-03T02:15:45;10.10;;;3.60;;
50483;SDS011;36409;52.168;20.878;2022-09-03T02:18:20;8.30;;;3.37;;
50483;SDS011;36409;52.168;20.878;2022-09-03T02:20:51;10.73;;;3.27;;
50483;SDS011;36409;52.168;20.878;2022-09-03T02:23:22;9.30;;;3.23;;
50483;SDS011;36409;52.168;20.878;2022-09-03T02:25:55;9.57;;;3.63;;
50483;SDS011;36409;52.168;20.878;2022-09-03T02:28:27;6.33;;;3.30;;
50483;SDS011;36409;52.168;20.878;2022-09-03T02:30:57;9.40;;;3.50;;
50483;SDS011;36409;52.168;20.878;2022-09-03T02:33:29;7.60;;;2.80;;
50483;SDS011;36409;52.168;20.878;2022-09-03T02:35:59;9.30;;;3.40;;
50483;SDS011;36409;52.168;20.878;2022-09-03T02:38:30;12.37;;;3.80;;
50483;SDS011;36409;52.168;20.878;2022-09-03T02:40:59;6.77;;;3.30;;
50483;SDS011;36409;52.168;20.878;2022-09-03T02:43:31;10.03;;;3.20;;
50483;SDS011;36409;52.168;20.878;2022-09-03T02:46:07;7.43;;;3.37;;
50483;SDS011;36409;52.168;20.878;2022-09-03T02:48:41;7.17;;;3.23;;
50483;SDS011;36409;52.168;20.878;2022-09-03T02:51:10;7.60;;;3.20;;
50483;SDS011;36409;52.168;20.878;2022-09-03T02:53:41;7.93;;;3.57;;
50483;SDS011;36409;52.168;20.878;2022-09-03T02:56:10;6.20;;;3.10;;
50483;SDS011;36409;52.168;20.878;2022-09-03T02:58:39;8.07;;;4.00;;
50483;SDS011;36409;52.168;20.878;2022-09-03T03:01:08;9.47;;;3.60;;
50483;SDS011;36409;52.168;20.878;2022-09-03T03:03:41;6.20;;;2.67;;
50483;SDS011;36409;52.168;20.878;2022-09-03T03:06:09;9.10;;;3.77;;
50483;SDS011;36409;52.168;20.878;2022-09-03T03:08:40;9.17;;;2.77;;
50483;SDS011;36409;52.168;20.878;2022-09-03T03:11:10;6.37;;;3.10;;
50483;SDS011;36409;52.168;20.878;2022-09-03T03:13:39;8.00;;;3.50;;
50483;SDS011;36409;52.168;20.878;2022-09-03T03:16:07;8.13;;;3.80;;
50483;SDS011;36409;52.168;20.878;2022-09-03T03:18:38;7.40;;;3.40;;
50483;SDS011;36409;52.168;20.878;2022-09-03T03:21:07;7.27;;;3.40;;
50483;SDS011;36409;52.168;20.878;2022-09-03T03:23:38;14.13;;;3.37;;
50483;SDS011;36409;52.168;20.878;2022-09-03T03:26:08;8.97;;;3.63;;
50483;SDS011;36409;52.168;20.878;2022-09-03T03:28:39;8.47;;;3.37;;
50483;SDS011;36409;52.168;20.878;2022-09-03T03:31:08;7.10;;;3.93;;
50483;SDS011;36409;52.168;20.878;2022-09-03T03:33:39;9.80;;;3.57;;
50483;SDS011;36409;52.168;20.878;2022-09-03T03:36:09;8.63;;;3.60;;
50483;SDS011;36409;52.168;20.878;2022-09-03T03:38:40;6.60;;;2.70;;
50483;SDS011;36409;52.168;20.878;2022-09-03T03:41:10;7.27;;;3.40;;
50483;SDS011;36409;52.168;20.878;2022-09-03T03:43:41;7.77;;;3.10;;
50483;SDS011;36409;52.168;20.878;2022-09-03T03:46:10;5.40;;;2.97;;
50483;SDS011;36409;52.168;20.878;2022-09-03T03:48:41;6.83;;;2.73;;
50483;SDS011;36409;52.168;20.878;2022-09-03T03:51:09;9.90;;;3.80;;
50483;SDS011;36409;52.168;20.878;2022-09-03T03:53:38;6.40;;;3.03;;
50483;SDS011;36409;52.168;20.878;2022-09-03T03:56:08;8.80;;;3.30;;
50483;SDS011;36409;52.168;20.878;2022-09-03T03:58:42;6.87;;;3.43;;
50483;SDS011;36409;52.168;20.878;2022-09-03T04:01:11;9.23;;;3.33;;
50483;SDS011;36409;52.168;20.878;2022-09-03T04:03:44;7.87;;;3.50;;
50483;SDS011;36409;52.168;20.878;2022-09-03T04:06:14;8.63;;;3.03;;
50483;SDS011;36409;52.168;20.878;2022-09-03T04:08:46;9.27;;;3.17;;
50483;SDS011;36409;52.168;20.878;2022-09-03T04:11:17;9.10;;;3.70;;
50483;SDS011;36409;52.168;20.878;2022-09-03T04:13:48;10.00;;;3.20;;
50483;SDS011;36409;52.168;20.878;2022-09-03T04:16:18;7.50;;;3.40;;
50483;SDS011;36409;52.168;20.878;2022-09-03T04:18:49;7.17;;;3.10;;
50483;SDS011;36409;52.168;20.878;2022-09-03T04:21:19;6.30;;;3.07;;
50483;SDS011;36409;52.168;20.878;2022-09-03T04:23:57;6.90;;;3.07;;
50483;SDS011;36409;52.168;20.878;2022-09-03T04:26:26;15.90;;;3.33;;
50483;SDS011;36409;52.168;20.878;2022-09-03T04:28:57;8.47;;;3.30;;
50483;SDS011;36409;52.168;20.878;2022-09-03T04:31:28;8.40;;;3.40;;
50483;SDS011;36409;52.168;20.878;2022-09-03T04:33:58;5.80;;;2.77;;
50483;SDS011;36409;52.168;20.878;2022-09-03T04:36:29;5.80;;;3.10;;
50483;SDS011;36409;52.168;20.878;2022-09-03T04:39:01;9.78;;;3.40;;
50483;SDS011;36409;52.168;20.878;2022-09-03T04:41:30;9.50;;;3.87;;
50483;SDS011;36409;52.168;20.878;2022-09-03T04:43:59;9.37;;;3.30;;
50483;SDS011;36409;52.168;20.878;2022-09-03T04:46:29;10.27;;;3.33;;
50483;SDS011;36409;52.168;20.878;2022-09-03T04:48:59;9.40;;;3.67;;
50483;SDS011;36409;52.168;20.878;2022-09-03T04:51:32;7.10;;;3.30;;
50483;SDS011;36409;52.168;20.878;2022-09-03T04:54:01;10.80;;;3.50;;
50483;SDS011;36409;52.168;20.878;2022-09-03T04:56:33;7.97;;;3.00;;
50483;SDS011;36409;52.168;20.878;2022-09-03T04:59:03;7.63;;;3.10;;
50483;SDS011;36409;52.168;20.878;2022-09-03T05:01:36;7.62;;;3.33;;
50483;SDS011;36409;52.168;20.878;2022-09-03T05:04:06;8.50;;;3.40;;
50483;SDS011;36409;52.168;20.878;2022-09-03T05:06:35;6.53;;;2.90;;
50483;SDS011;36409;52.168;20.878;2022-09-03T05:09:05;7.67;;;3.17;;
50483;SDS011;36409;52.168;20.878;2022-09-03T05:11:35;16.93;;;4.00;;
50483;SDS011;36409;52.168;20.878;2022-09-03T05:14:04;9.70;;;3.53;;
50483;SDS011;36409;52.168;20.878;2022-09-03T05:16:38;8.40;;;3.40;;
50483;SDS011;36409;52.168;20.878;2022-09-03T05:19:07;9.35;;;3.15;;
50483;SDS011;36409;52.168;20.878;2022-09-03T05:21:37;9.10;;;3.17;;
50483;SDS011;36409;52.168;20.878;2022-09-03T05:24:07;7.90;;;3.20;;
50483;SDS011;36409;52.168;20.878;2022-09-03T05:26:38;11.10;;;3.17;;
50483;SDS011;36409;52.168;20.878;2022-09-03T05:29:11;7.63;;;2.77;;
50483;SDS011;36409;52.168;20.878;2022-09-03T05:31:40;6.87;;;3.50;;
50483;SDS011;36409;52.168;20.878;2022-09-03T05:34:09;10.53;;;3.57;;
50483;SDS011;36409;52.168;20.878;2022-09-03T05:36:45;13.17;;;3.83;;
50483;SDS011;36409;52.168;20.878;2022-09-03T05:39:16;5.87;;;3.17;;
50483;SDS011;36409;52.168;20.878;2022-09-03T05:41:45;7.97;;;3.30;;
50483;SDS011;36409;52.168;20.878;2022-09-03T05:44:17;7.07;;;3.47;;
50483;SDS011;36409;52.168;20.878;2022-09-03T05:46:47;12.73;;;3.50;;
50483;SDS011;36409;52.168;20.878;2022-09-03T05:49:17;9.23;;;3.23;;
50483;SDS011;36409;52.168;20.878;2022-09-03T05:51:46;7.70;;;3.20;;
50483;SDS011;36409;52.168;20.878;2022-09-03T05:54:16;8.77;;;3.00;;
50483;SDS011;36409;52.168;20.878;2022-09-03T05:56:44;13.03;;;4.27;;
50483;SDS011;36409;52.168;20.878;2022-09-03T05:59:13;8.40;;;4.07;;
50483;SDS011;36409;52.168;20.878;2022-09-03T06:01:43;10.80;;;3.67;;
50483;SDS011;36409;52.168;20.878;2022-09-03T06:04:18;6.17;;;2.73;;
50483;SDS011;36409;52.168;20.878;2022-09-03T06:06:47;5.27;;;2.40;;
50483;SDS011;36409;52.168;20.878;2022-09-03T06:09:17;3.33;;;1.90;;
50483;SDS011;36409;52.168;20.878;2022-09-03T06:11:47;7.80;;;2.00;;
50483;SDS011;36409;52.168;20.878;2022-09-03T06:14:16;5.47;;;2.70;;
50483;SDS011;36409;52.168;20.878;2022-09-03T06:16:45;7.93;;;2.73;;
50483;SDS011;36409;52.168;20.878;2022-09-03T06:19:15;5.13;;;2.40;;
50483;SDS011;36409;52.168;20.878;2022-09-03T06:21:45;6.87;;;2.10;;
50483;SDS011;36409;52.168;20.878;2022-09-03T06:24:15;6.47;;;2.53;;
50483;SDS011;36409;52.168;20.878;2022-09-03T06:26:47;6.17;;;2.00;;
50483;SDS011;36409;52.168;20.878;2022-09-03T07:12:53;8.73;;;2.00;;
50483;SDS011;36409;52.168;20.878;2022-09-03T07:15:22;5.27;;;2.20;;
50483;SDS011;36409;52.168;20.878;2022-09-03T07:17:52;7.57;;;1.90;;
50483;SDS011;36409;52.168;20.878;2022-09-03T07:20:23;9.10;;;2.10;;
50483;SDS011;36409;52.168;20.878;2022-09-03T07:22:55;5.47;;;2.00;;
50483;SDS011;36409;52.168;20.878;2022-09-03T07:25:26;4.27;;;1.97;;
50483;SDS011;36409;52.168;20.878;2022-09-03T07:27:56;6.47;;;1.80;;
50483;SDS011;36409;52.168;20.878;2022-09-03T07:30:26;7.73;;;2.50;;
50483;SDS011;36409;52.168;20.878;2022-09-03T07:32:57;6.57;;;1.80;;
50483;SDS011;36409;52.168;20.878;2022-09-03T07:35:30;4.10;;;1.70;;
50483;SDS011;36409;52.168;20.878;2022-09-03T07:38:03;3.65;;;1.80;;
50483;SDS011;36409;52.168;20.878;2022-09-03T07:40:34;3.80;;;1.73;;
50483;SDS011;36409;52.168;20.878;2022-09-03T07:43:05;5.00;;;1.60;;
50483;SDS011;36409;52.168;20.878;2022-09-03T07:45:34;3.97;;;1.97;;
50483;SDS011;36409;52.168;20.878;2022-09-03T07:48:04;3.77;;;1.80;;
50483;SDS011;36409;52.168;20.878;2022-09-03T07:50:33;6.03;;;1.80;;
50483;SDS011;36409;52.168;20.878;2022-09-03T07:53:05;4.10;;;1.60;;
50483;SDS011;36409;52.168;20.878;2022-09-03T07:55:34;4.60;;;1.23;;
50483;SDS011;36409;52.168;20.878;2022-09-03T07:58:03;8.83;;;2.10;;
50483;SDS011;36409;52.168;20.878;2022-09-03T08:00:32;3.97;;;1.73;;
50483;SDS011;36409;52.168;20.878;2022-09-03T08:03:01;6.57;;;1.60;;
50483;SDS011;36409;52.168;20.878;2022-09-03T08:05:35;4.87;;;1.40;;
50483;SDS011;36409;52.168;20.878;2022-09-03T08:08:05;3.27;;;1.57;;
50483;SDS011;36409;52.168;20.878;2022-09-03T08:10:34;5.50;;;1.70;;
50483;SDS011;36409;52.168;20.878;2022-09-03T08:13:06;7.80;;;1.93;;
50483;SDS011;36409;52.168;20.878;2022-09-03T08:15:36;2.50;;;1.27;;
50483;SDS011;36409;52.168;20.878;2022-09-03T08:18:09;4.73;;;1.87;;
50483;SDS011;36409;52.168;20.878;2022-09-03T08:20:38;4.50;;;1.53;;
50483;SDS011;36409;52.168;20.878;2022-09-03T08:23:07;4.90;;;1.70;;
50483;SDS011;36409;52.168;20.878;2022-09-03T08:25:36;4.97;;;1.63;;
50483;SDS011;36409;52.168;20.878;2022-09-03T08:28:05;3.17;;;1.40;;
50483;SDS011;36409;52.168;20.878;2022-09-03T08:30:36;6.63;;;2.03;;
50483;SDS011;36409;52.168;20.878;2022-09-03T08:33:05;3.60;;;1.50;;
50483;SDS011;36409;52.168;20.878;2022-09-03T08:35:34;4.47;;;1.70;;
50483;SDS011;36409;52.168;20.878;2022-09-03T08:38:03;3.37;;;1.73;;
50483;SDS011;36409;52.168;20.878;2022-09-03T08:43:07;3.93;;;1.67;;
50483;SDS011;36409;52.168;20.878;2022-09-03T08:45:43;2.97;;;1.30;;
50483;SDS011;36409;52.168;20.878;2022-09-03T08:48:13;5.53;;;1.47;;
50483;SDS011;36409;52.168;20.878;2022-09-03T08:50:52;4.27;;;1.70;;
50483;SDS011;36409;52.168;20.878;2022-09-03T08:53:29;5.50;;;1.73;;
50483;SDS011;36409;52.168;20.878;2022-09-03T08:56:08;3.37;;;1.43;;
50483;SDS011;36409;52.168;20.878;2022-09-03T09:01:11;2.93;;;1.27;;
50483;SDS011;36409;52.168;20.878;2022-09-03T09:03:54;3.27;;;1.50;;
50483;SDS011;36409;52.168;20.878;2022-09-03T09:06:33;4.43;;;1.67;;
50483;SDS011;36409;52.168;20.878;2022-09-03T09:09:11;6.47;;;1.40;;
50483;SDS011;36409;52.168;20.878;2022-09-03T09:11:59;3.23;;;1.40;;
50483;SDS011;36409;52.168;20.878;2022-09-03T09:14:45;2.97;;;1.30;;
50483;SDS011;36409;52.168;20.878;2022-09-03T09:17:24;2.87;;;1.43;;
50483;SDS011;36409;52.168;20.878;2022-09-03T09:20:05;3.77;;;1.43;;
50483;SDS011;36409;52.168;20.878;2022-09-03T09:22:43;4.33;;;1.63;;
50483;SDS011;36409;52.168;20.878;2022-09-03T09:25:15;2.67;;;1.20;;
50483;SDS011;36409;52.168;20.878;2022-09-03T09:27:47;3.93;;;1.37;;
50483;SDS011;36409;52.168;20.878;2022-09-03T09:30:22;6.77;;;1.70;;
50483;SDS011;36409;52.168;20.878;2022-09-03T09:32:50;2.43;;;1.17;;
50483;SDS011;36409;52.168;20.878;2022-09-03T09:35:19;2.63;;;1.20;;
50483;SDS011;36409;52.168;20.878;2022-09-03T09:37:49;4.90;;;1.30;;
50483;SDS011;36409;52.168;20.878;2022-09-03T09:40:22;5.60;;;1.80;;
50483;SDS011;36409;52.168;20.878;2022-09-03T09:43:02;2.70;;;1.47;;
50483;SDS011;36409;52.168;20.878;2022-09-03T09:48:01;3.10;;;1.50;;
50483;SDS011;36409;52.168;20.878;2022-09-03T09:50:36;3.37;;;1.57;;
50483;SDS011;36409;52.168;20.878;2022-09-03T09:53:06;6.23;;;1.50;;
50483;SDS011;36409;52.168;20.878;2022-09-03T09:55:50;3.80;;;1.40;;
50483;SDS011;36409;52.168;20.878;2022-09-03T09:58:21;3.87;;;1.43;;
50483;SDS011;36409;52.168;20.878;2022-09-03T10:00:55;3.57;;;1.67;;
50483;SDS011;36409;52.168;20.878;2022-09-03T10:03:27;3.33;;;1.40;;
50483;SDS011;36409;52.168;20.878;2022-09-03T10:06:03;3.07;;;1.30;;
50483;SDS011;36409;52.168;20.878;2022-09-03T10:11:33;2.37;;;1.07;;
50483;SDS011;36409;52.168;20.878;2022-09-03T10:14:10;3.87;;;1.67;;
50483;SDS011;36409;52.168;20.878;2022-09-03T10:16:46;6.13;;;1.40;;
50483;SDS011;36409;52.168;20.878;2022-09-03T10:19:25;2.40;;;1.20;;
50483;SDS011;36409;52.168;20.878;2022-09-03T10:22:02;3.07;;;1.30;;
50483;SDS011;36409;52.168;20.878;2022-09-03T10:24:45;3.85;;;1.30;;
50483;SDS011;36409;52.168;20.878;2022-09-03T10:27:23;5.57;;;1.60;;
50483;SDS011;36409;52.168;20.878;2022-09-03T10:29:52;3.23;;;1.47;;
50483;SDS011;36409;52.168;20.878;2022-09-03T10:32:32;1.57;;;1.03;;
50483;SDS011;36409;52.168;20.878;2022-09-03T10:35:17;4.53;;;1.37;;
50483;SDS011;36409;52.168;20.878;2022-09-03T10:37:52;18.13;;;1.90;;
50483;SDS011;36409;52.168;20.878;2022-09-03T10:40:29;9.53;;;1.80;;
50483;SDS011;36409;52.168;20.878;2022-09-03T10:43:16;6.27;;;1.70;;
50483;SDS011;36409;52.168;20.878;2022-09-03T10:46:05;4.93;;;1.20;;
50483;SDS011;36409;52.168;20.878;2022-09-03T10:48:49;3.33;;;1.47;;
50483;SDS011;36409;52.168;20.878;2022-09-03T10:51:45;3.73;;;1.77;;
50483;SDS011;36409;52.168;20.878;2022-09-03T10:57:24;5.73;;;1.57;;
50483;SDS011;36409;52.168;20.878;2022-09-03T11:00:04;4.13;;;1.20;;
50483;SDS011;36409;52.168;20.878;2022-09-03T11:02:45;2.97;;;1.17;;
50483;SDS011;36409;52.168;20.878;2022-09-03T11:05:31;1.83;;;0.90;;
50483;SDS011;36409;52.168;20.878;2022-09-03T11:08:06;4.80;;;1.40;;
50483;SDS011;36409;52.168;20.878;2022-09-03T11:10:45;4.10;;;1.57;;
50483;SDS011;36409;52.168;20.878;2022-09-03T11:13:19;4.93;;;1.50;;
50483;SDS011;36409;52.168;20.878;2022-09-03T11:15:52;3.10;;;1.03;;
50483;SDS011;36409;52.168;20.878;2022-09-03T11:18:26;5.50;;;1.20;;
50483;SDS011;36409;52.168;20.878;2022-09-03T11:21:00;3.63;;;1.27;;
50483;SDS011;36409;52.168;20.878;2022-09-03T11:23:36;2.30;;;1.00;;
50483;SDS011;36409;52.168;20.878;2022-09-03T11:26:09;3.43;;;1.10;;
50483;SDS011;36409;52.168;20.878;2022-09-03T11:28:41;3.87;;;1.50;;
50483;SDS011;36409;52.168;20.878;2022-09-03T11:31:21;2.37;;;1.17;;
50483;SDS011;36409;52.168;20.878;2022-09-03T11:33:59;2.57;;;1.00;;
50483;SDS011;36409;52.168;20.878;2022-09-03T11:36:35;2.63;;;1.10;;
50483;SDS011;36409;52.168;20.878;2022-09-03T11:39:12;3.57;;;1.30;;
50483;SDS011;36409;52.168;20.878;2022-09-03T11:41:56;6.03;;;1.37;;
50483;SDS011;36409;52.168;20.878;2022-09-03T11:44:33;2.87;;;1.20;;
50483;SDS011;36409;52.168;20.878;2022-09-03T11:47:15;3.67;;;1.20;;
50483;SDS011;36409;52.168;20.878;2022-09-03T11:49:48;2.47;;;1.00;;
50483;SDS011;36409;52.168;20.878;2022-09-03T11:52:25;1.90;;;1.00;;
50483;SDS011;36409;52.168;20.878;2022-09-03T11:54:55;2.50;;;1.27;;
50483;SDS011;36409;52.168;20.878;2022-09-03T11:57:26;3.33;;;1.27;;
50483;SDS011;36409;52.168;20.878;2022-09-03T12:00:06;4.47;;;1.17;;
50483;SDS011;36409;52.168;20.878;2022-09-03T12:02:42;4.10;;;0.93;;
50483;SDS011;36409;52.168;20.878;2022-09-03T12:08:09;2.20;;;1.10;;
50483;SDS011;36409;52.168;20.878;2022-09-03T12:11:04;1.63;;;1.00;;
50483;SDS011;36409;52.168;20.878;2022-09-03T12:13:46;4.20;;;1.60;;
50483;SDS011;36409;52.168;20.878;2022-09-03T12:16:27;3.50;;;1.10;;
50483;SDS011;36409;52.168;20.878;2022-09-03T12:19:20;3.93;;;1.40;;
50483;SDS011;36409;52.168;20.878;2022-09-03T12:21:55;1.97;;;1.03;;
50483;SDS011;36409;52.168;20.878;2022-09-03T12:24:25;4.23;;;1.30;;
50483;SDS011;36409;52.168;20.878;2022-09-03T12:27:01;2.90;;;1.23;;
50483;SDS011;36409;52.168;20.878;2022-09-03T12:29:30;4.47;;;1.40;;
50483;SDS011;36409;52.168;20.878;2022-09-03T12:32:06;4.03;;;1.70;;
50483;SDS011;36409;52.168;20.878;2022-09-03T12:34:38;2.43;;;1.10;;
50483;SDS011;36409;52.168;20.878;2022-09-03T12:37:15;4.47;;;1.33;;
50483;SDS011;36409;52.168;20.878;2022-09-03T12:40:14;6.57;;;1.53;;
50483;SDS011;36409;52.168;20.878;2022-09-03T12:42:45;1.70;;;1.03;;
50483;SDS011;36409;52.168;20.878;2022-09-03T12:45:18;4.90;;;1.40;;
50483;SDS011;36409;52.168;20.878;2022-09-03T12:47:48;2.10;;;1.00;;
50483;SDS011;36409;52.168;20.878;2022-09-03T12:50:18;4.83;;;1.30;;
50483;SDS011;36409;52.168;20.878;2022-09-03T12:52:49;5.47;;;1.30;;
50483;SDS011;36409;52.168;20.878;2022-09-03T12:55:26;3.75;;;1.20;;
50483;SDS011;36409;52.168;20.878;2022-09-03T12:58:04;1.97;;;1.23;;
50483;SDS011;36409;52.168;20.878;2022-09-03T13:00:42;3.00;;;1.07;;
50483;SDS011;36409;52.168;20.878;2022-09-03T13:03:16;3.30;;;1.53;;
50483;SDS011;36409;52.168;20.878;2022-09-03T13:05:50;3.63;;;1.63;;
50483;SDS011;36409;52.168;20.878;2022-09-03T13:08:22;3.80;;;1.60;;
50483;SDS011;36409;52.168;20.878;2022-09-03T13:10:55;3.73;;;1.33;;
50483;SDS011;36409;52.168;20.878;2022-09-03T13:13:25;4.27;;;1.40;;
50483;SDS011;36409;52.168;20.878;2022-09-03T13:19:12;4.07;;;1.17;;
50483;SDS011;36409;52.168;20.878;2022-09-03T13:21:49;4.30;;;1.23;;
50483;SDS011;36409;52.168;20.878;2022-09-03T13:27:21;1.73;;;0.83;;
50483;SDS011;36409;52.168;20.878;2022-09-03T13:30:02;3.30;;;1.50;;
50483;SDS011;36409;52.168;20.878;2022-09-03T13:32:38;4.00;;;1.30;;
50483;SDS011;36409;52.168;20.878;2022-09-03T13:35:19;5.87;;;1.07;;
50483;SDS011;36409;52.168;20.878;2022-09-03T13:37:55;2.60;;;1.20;;
50483;SDS011;36409;52.168;20.878;2022-09-03T13:40:34;4.43;;;1.40;;
50483;SDS011;36409;52.168;20.878;2022-09-03T13:43:10;1.87;;;0.90;;
50483;SDS011;36409;52.168;20.878;2022-09-03T13:48:24;2.67;;;1.23;;
50483;SDS011;36409;52.168;20.878;2022-09-03T13:51:20;4.37;;;1.10;;
50483;SDS011;36409;52.168;20.878;2022-09-03T13:54:06;2.93;;;1.10;;
50483;SDS011;36409;52.168;20.878;2022-09-03T13:56:58;3.10;;;1.23;;
50483;SDS011;36409;52.168;20.878;2022-09-03T13:59:33;3.03;;;1.40;;
50483;SDS011;36409;52.168;20.878;2022-09-03T14:02:19;2.23;;;1.20;;
50483;SDS011;36409;52.168;20.878;2022-09-03T14:05:00;2.33;;;1.23;;
50483;SDS011;36409;52.168;20.878;2022-09-03T14:07:40;3.40;;;1.30;;
50483;SDS011;36409;52.168;20.878;2022-09-03T14:12:49;5.37;;;1.20;;
50483;SDS011;36409;52.168;20.878;2022-09-03T14:15:30;2.57;;;1.40;;
50483;SDS011;36409;52.168;20.878;2022-09-03T14:18:14;3.73;;;1.30;;
50483;SDS011;36409;52.168;20.878;2022-09-03T14:20:57;5.50;;;1.27;;
50483;SDS011;36409;52.168;20.878;2022-09-03T14:23:33;2.70;;;1.20;;
50483;SDS011;36409;52.168;20.878;2022-09-03T14:26:16;4.00;;;1.30;;
50483;SDS011;36409;52.168;20.878;2022-09-03T14:29:13;4.83;;;1.57;;
50483;SDS011;36409;52.168;20.878;2022-09-03T14:34:45;1.90;;;1.20;;
50483;SDS011;36409;52.168;20.878;2022-09-03T14:37:31;5.17;;;1.40;;
50483;SDS011;36409;52.168;20.878;2022-09-03T14:40:17;3.73;;;1.20;;
50483;SDS011;36409;52.168;20.878;2022-09-03T14:43:08;4.57;;;1.43;;
50483;SDS011;36409;52.168;20.878;2022-09-03T14:45:50;5.30;;;1.50;;
50483;SDS011;36409;52.168;20.878;2022-09-03T14:51:41;2.87;;;1.10;;
50483;SDS011;36409;52.168;20.878;2022-09-03T14:57:39;2.57;;;1.30;;
50483;SDS011;36409;52.168;20.878;2022-09-03T15:00:19;7.93;;;1.70;;
50483;SDS011;36409;52.168;20.878;2022-09-03T15:03:07;3.70;;;1.17;;
50483;SDS011;36409;52.168;20.878;2022-09-03T15:06:03;6.00;;;1.17;;
50483;SDS011;36409;52.168;20.878;2022-09-03T15:08:48;3.47;;;1.20;;
50483;SDS011;36409;52.168;20.878;2022-09-03T15:11:29;4.03;;;1.40;;
50483;SDS011;36409;52.168;20.878;2022-09-03T15:14:03;5.03;;;1.50;;
50483;SDS011;36409;52.168;20.878;2022-09-03T15:16:45;4.43;;;1.23;;
50483;SDS011;36409;52.168;20.878;2022-09-03T15:19:33;3.13;;;1.23;;
50483;SDS011;36409;52.168;20.878;2022-09-03T15:22:13;2.33;;;1.20;;
50483;SDS011;36409;52.168;20.878;2022-09-03T15:24:57;3.85;;;1.30;;
50483;SDS011;36409;52.168;20.878;2022-09-03T15:27:38;5.60;;;1.13;;
50483;SDS011;36409;52.168;20.878;2022-09-03T15:30:33;5.33;;;1.50;;
50483;SDS011;36409;52.168;20.878;2022-09-03T15:36:01;2.33;;;1.23;;
50483;SDS011;36409;52.168;20.878;2022-09-03T15:38:48;4.03;;;1.30;;
50483;SDS011;36409;52.168;20.878;2022-09-03T15:41:36;5.47;;;1.30;;
50483;SDS011;36409;52.168;20.878;2022-09-03T15:44:11;3.30;;;1.20;;
50483;SDS011;36409;52.168;20.878;2022-09-03T15:46:54;3.37;;;1.20;;
50483;SDS011;36409;52.168;20.878;2022-09-03T15:49:30;3.37;;;1.17;;
50483;SDS011;36409;52.168;20.878;2022-09-03T15:52:19;5.70;;;1.50;;
50483;SDS011;36409;52.168;20.878;2022-09-03T15:54:58;4.00;;;1.30;;
50483;SDS011;36409;52.168;20.878;2022-09-03T15:57:36;2.80;;;1.30;;
50483;SDS011;36409;52.168;20.878;2022-09-03T16:00:12;3.80;;;1.60;;
50483;SDS011;36409;52.168;20.878;2022-09-03T16:02:52;3.87;;;1.60;;
50483;SDS011;36409;52.168;20.878;2022-09-03T16:05:35;3.57;;;1.83;;
50483;SDS011;36409;52.168;20.878;2022-09-03T16:08:12;5.43;;;1.83;;
50483;SDS011;36409;52.168;20.878;2022-09-03T16:10:51;4.17;;;1.57;;
50483;SDS011;36409;52.168;20.878;2022-09-03T16:16:13;7.83;;;1.57;;
50483;SDS011;36409;52.168;20.878;2022-09-03T16:18:53;3.60;;;1.80;;
50483;SDS011;36409;52.168;20.878;2022-09-03T16:21:31;4.87;;;1.80;;
50483;SDS011;36409;52.168;20.878;2022-09-03T16:24:15;7.53;;;2.00;;
50483;SDS011;36409;52.168;20.878;2022-09-03T16:26:49;4.40;;;1.97;;
50483;SDS011;36409;52.168;20.878;2022-09-03T16:29:26;3.90;;;2.00;;
50483;SDS011;36409;52.168;20.878;2022-09-03T16:32:00;5.60;;;2.17;;
50483;SDS011;36409;52.168;20.878;2022-09-03T16:34:41;6.13;;;2.10;;
50483;SDS011;36409;52.168;20.878;2022-09-03T16:37:24;3.98;;;1.92;;
50483;SDS011;36409;52.168;20.878;2022-09-03T16:40:05;4.83;;;1.70;;
50483;SDS011;36409;52.168;20.878;2022-09-03T16:42:42;4.60;;;2.20;;
50483;SDS011;36409;52.168;20.878;2022-09-03T16:45:23;5.03;;;1.93;;
50483;SDS011;36409;52.168;20.878;2022-09-03T16:48:10;4.27;;;2.27;;
50483;SDS011;36409;52.168;20.878;2022-09-03T16:50:54;4.70;;;1.90;;